HEBA/HBE METAR and TAF weather

Enter ICAO airport designator
Station Type Date Time Source
HEBA METAR 2020/01/28 05:00 UTC NOAA

HEBA 280500Z 00000KT 1200 R32 1200 BR NSC 08/08 Q1020 NOSIG


Station Type Date Time Source
HEBA Decoded METAR 2020/01/28 05:00 UTC NOAA

Alexandria Borg El Arab, Egypt (HEBA) 31-31N 030-10E
Jan 28, 2020 - 12:00 AM EST / 2020.01.28 0500 UTC
Wind: Calm:0
Visibility: less than 1 mile:0
Weather: mist
Temperature: 46 F (8 C)
Dew Point: 46 F (8 C)
Relative Humidity: 100%
Pressure (altimeter): 30.12 in. Hg (1020 hPa)
ob: HEBA 280500Z 00000KT 1200 R32 1200 BR NSC 08/08 Q1020 NOSIG
cycle: 5

Station Type Date Time Source
HEBA TAF 2020/01/28 06:12 UTC NOAA

TAF HEBA 280500Z 2806/2912 20006KT 9999 FEW020
TEMPO 2806/2809 VRB03KT 3000 BR NSC
TEMPO 2806/2808 1000
BECMG 2810/2812 30012KT

Example: see airport list